Airfield :
LOGIN :

Register | Disclaimer

   EN    FR    IT 

 










Legend :    VFR   Marginal VFR   IFR   Intensive IFR   Very Intensive IFR
Visi :
Ceiling :
>= 8 km
>= 3000ft
5 to 8 km
1000 to 3000 ft
1500m to 5 km
500 to 1000 ft
800 to 1500m
200 to 500 ft
< 800m
< 200 ft
Symbols :   Thunderstorms  Fog  Heavy snow  Heavy precipitations  Wind > 20 kt
SIGMETs :     Misc.  Thunderstorms  Icing  Turbulence  Mountain Waves  Volcanic Ashes







- Airport Elevation : 124 ft
- IATA code : NHT
- Download approach charts


EGWU - RAF Northolt

CURRENT METAR :
  • 201450Z 06010KT 9999 -RA FEW012 SCT016 BKN028 04/02 Q1005 WHT BECMG FEW016 BKN028 BLU

EXPIRED METARs :
  • 201350Z 06012KT 7000 -RA FEW012 BKN022 04/02 Q1006 WHT TEMPO SCT012 GRN
  • 201324Z 05014KT 9999 -RA SCT012 BKN020 04/02 Q1006 GRN TEMPO 6000 -RA GRN
  • 201250Z 06012KT 9999 -RA FEW014 BKN020 04/02 Q1006 TEMPO 6000 SCT012
  • 201223Z 05012KT 9999 -RA SCT014 BKN020 05/03 Q1007 GRN TEMPO 6000 -RA GRN

TAF TAF EGWU
Valid from the 20 at 15:00 until the 21 at 09:00 UTC


201338Z 2015/2109 05012KT 9999 FEW018 BKN035
TEMPO 2015/2102 6000 -SHRA SCT010 BKN020
PROB40 2102/2109 4000 BR
PROB30
TEMPO 2102/2109 SCT005
No reported NOTAMs for that airfield.
1 SIGMET reported for the London FIR (EGTT) :
 
Severe mountain waves
EGTT SIGMET 02 VALID 201300/201700 EGRR
EGTT LONDON FIR SEV MTW FCST WI N5322 W00134 - N5149 W00328 - N5130 W00504 - N5500 W00447 - N5500 W00220 - N5322 W00134 FL030/120 STNR NC=



MET'MAP, your aeronautical weather chart ! - Copyright ORBIFLY December 2007 - Disclaimer

ORBIFLY MET'MAP TEAM :

Programming & Development : Alexandra Zaïnal
Concept & Development : Baudouin d'Aumeries
Co-Development & Prog : Marc-Olivier Méhu
Technical & hardware support : Manuel Goepfert

Contact : metmap@orbifly.com




SOURCES & CREDITS :

   NOAA